createdAt,value
2022-09-01T00:00:15.940Z,88.05
2022-09-01T00:02:44.689Z,87.15
2022-09-01T00:05:13.898Z,88.47
2022-09-01T00:07:41.406Z,88.18
2022-09-01T00:10:10.062Z,87.66
2022-09-01T00:12:38.517Z,87.12
2022-09-01T00:15:09.200Z,87.64
2022-09-01T00:17:37.099Z,89.32
2022-09-01T00:20:05.940Z,88.66
2022-09-01T00:22:33.986Z,88.51
2022-09-01T00:25:06.636Z,90.10
2022-09-01T00:27:34.270Z,88.69
2022-09-01T00:30:02.083Z,90.12
2022-09-01T00:32:29.524Z,90.52
2022-09-01T00:34:57.001Z,90.33
2022-09-01T00:37:24.925Z,90.45
2022-09-01T00:39:52.750Z,91.07
2022-09-01T00:42:21.314Z,92.11
2022-09-01T00:44:49.230Z,91.07
2022-09-01T00:47:16.982Z,92.41
2022-09-01T00:49:53.338Z,91.79
2022-09-01T00:52:25.042Z,92.03
2022-09-01T00:54:58.192Z,90.61
2022-09-01T00:57:27.213Z,90.59
2022-09-01T01:00:17.257Z,91.25
2022-09-01T01:02:47.684Z,90.65
2022-09-01T01:05:16.323Z,90.13
2022-09-01T01:07:47.602Z,90.24
2022-09-01T01:10:19.286Z,89.93
2022-09-01T01:12:47.118Z,93.05
2022-09-01T01:15:15.157Z,94.75
2022-09-01T01:17:42.620Z,93.57
2022-09-01T01:20:34.166Z,92.58
2022-09-01T01:23:16.743Z,91.48
2022-09-01T01:25:51.653Z,89.77
2022-09-01T01:28:40.364Z,90.67
2022-09-01T01:31:19.564Z,90.79
2022-09-01T01:33:51.837Z,89.68
2022-09-01T01:36:31.225Z,90.83
2022-09-01T01:39:12.453Z,90.29
2022-09-01T01:41:43.814Z,88.87
2022-09-01T01:44:13.770Z,90.07
2022-09-01T01:46:47.421Z,89.43
2022-09-01T01:49:20.013Z,89.41
2022-09-01T01:51:56.122Z,90.54
2022-09-01T01:54:31.318Z,92.26
2022-09-01T01:57:00.754Z,92.04
2022-09-01T01:59:29.654Z,92.75
2022-09-01T02:01:58.385Z,91.45
2022-09-01T02:04:27.996Z,90.48
2022-09-01T02:06:55.917Z,89.05
2022-09-01T02:09:23.470Z,89.53
2022-09-01T02:11:57.325Z,90.64
2022-09-01T02:14:25.112Z,87.83
2022-09-01T02:16:56.127Z,86.99
2022-09-01T02:19:23.905Z,86.83
2022-09-01T02:21:56.256Z,85.91
2022-09-01T02:24:31.933Z,84.00
2022-09-01T02:27:02.933Z,84.91
2022-09-01T02:29:31.433Z,87.42
2022-09-01T02:32:07.741Z,86.90
2022-09-01T02:34:39.446Z,86.99
2022-09-01T02:37:09.148Z,88.82
2022-09-01T02:39:36.756Z,90.59
2022-09-01T02:42:04.634Z,90.00
2022-09-01T02:44:32.698Z,90.74
2022-09-01T02:47:04.176Z,90.39
2022-09-01T02:49:31.921Z,90.99
2022-09-01T02:52:01.865Z,89.73
2022-09-01T02:54:32.923Z,87.53
2022-09-01T02:57:04.118Z,86.85
2022-09-01T02:59:34.988Z,86.79
2022-09-01T03:02:02.573Z,85.12
2022-09-01T03:04:33.998Z,84.92
2022-09-01T03:07:04.360Z,82.67
2022-09-01T03:09:32.855Z,83.51
2022-09-01T03:12:00.381Z,81.64
2022-09-01T03:14:30.159Z,82.70
2022-09-01T03:16:57.853Z,83.72
2022-09-01T03:19:25.553Z,82.39
2022-09-01T03:21:53.010Z,82.36
2022-09-01T03:24:24.673Z,80.87
2022-09-01T03:26:53.584Z,81.24
2022-09-01T03:29:21.190Z,82.84
2022-09-01T03:31:49.506Z,82.94
2022-09-01T03:34:20.918Z,81.58
2022-09-01T03:37:00.316Z,82.27
2022-09-01T03:39:29.784Z,81.35
2022-09-01T03:41:59.120Z,80.53
2022-09-01T03:44:27.386Z,83.58
2022-09-01T03:46:54.985Z,82.58
2022-09-01T03:49:25.266Z,83.89
2022-09-01T03:51:54.063Z,85.40
2022-09-01T03:54:30.841Z,84.00
2022-09-01T03:57:00.203Z,85.38
2022-09-01T03:59:30.237Z,85.21
2022-09-01T04:02:00.654Z,86.60
2022-09-01T04:04:31.623Z,88.87
2022-09-01T04:07:02.866Z,87.21
2022-09-01T04:09:35.260Z,91.82
2022-09-01T08:33:33.030Z,57.18
2022-09-01T10:23:33.324Z,51.08
2022-09-01T11:59:25.742Z,51.65
2022-09-01T12:19:20.709Z,50.01
2022-09-01T12:35:57.483Z,52.75
2022-09-01T13:01:46.166Z,47.89
2022-09-01T13:40:31.215Z,50.08
2022-09-01T14:05:21.152Z,47.50
2022-09-01T14:22:43.039Z,48.31
2022-09-01T15:06:39.979Z,48.30
2022-09-01T15:09:19.198Z,48.46
2022-09-01T15:12:50.557Z,48.17
2022-09-01T15:15:37.598Z,47.13
2022-09-01T15:18:13.245Z,47.75
2022-09-01T15:21:33.941Z,47.64
2022-09-01T15:24:04.917Z,48.62
2022-09-01T15:26:35.986Z,48.44
2022-09-01T15:29:12.210Z,47.08
2022-09-01T19:48:08.047Z,53.07
2022-09-01T19:51:00.801Z,53.08
2022-09-01T21:03:47.317Z,53.94
2022-09-01T22:48:00.861Z,56.67
2022-09-01T23:03:21.832Z,56.98
2022-09-01T23:06:26.874Z,61.25
2022-09-01T23:09:02.214Z,58.73
2022-09-01T23:11:36.975Z,58.17
2022-09-01T23:14:59.312Z,58.94
2022-09-01T23:17:33.040Z,61.42
2022-09-01T23:20:16.511Z,63.51
2022-09-01T23:22:49.559Z,63.37
2022-09-01T23:25:31.147Z,60.76
2022-09-01T23:28:07.162Z,60.93
2022-09-01T23:30:38.473Z,63.78
2022-09-01T23:33:13.413Z,61.49
2022-09-01T23:35:50.175Z,61.93
2022-09-01T23:38:23.333Z,60.63
2022-09-01T23:41:15.779Z,60.62
2022-09-01T23:43:51.330Z,61.98
2022-09-01T23:46:30.367Z,63.43
2022-09-01T23:49:57.241Z,60.32
2022-09-01T23:52:26.152Z,59.79
2022-09-01T23:54:59.992Z,60.07
2022-09-01T23:57:30.929Z,62.53
